sensor_id;sensor_type;location;lat;lon;timestamp;temperature;humidity
22185;DHT22;11258;52.516;13.318;2023-02-28T00:01:24;3.00;99.90
22185;DHT22;11258;52.516;13.318;2023-02-28T00:03:49;3.00;99.90
22185;DHT22;11258;52.516;13.318;2023-02-28T00:06:15;3.10;99.90
22185;DHT22;11258;52.516;13.318;2023-02-28T00:08:41;3.00;99.90
22185;DHT22;11258;52.516;13.318;2023-02-28T00:11:09;3.10;99.90
22185;DHT22;11258;52.516;13.318;2023-02-28T00:13:37;3.10;99.90
22185;DHT22;11258;52.516;13.318;2023-02-28T00:16:06;3.10;99.90
22185;DHT22;11258;52.516;13.318;2023-02-28T00:18:32;3.10;99.90
22185;DHT22;11258;52.516;13.318;2023-02-28T00:20:59;3.00;99.90
22185;DHT22;11258;52.516;13.318;2023-02-28T00:23:25;3.00;99.90
22185;DHT22;11258;52.516;13.318;2023-02-28T00:25:51;3.00;99.90
22185;DHT22;11258;52.516;13.318;2023-02-28T00:28:17;3.00;99.90
22185;DHT22;11258;52.516;13.318;2023-02-28T00:30:43;3.00;99.90
22185;DHT22;11258;52.516;13.318;2023-02-28T00:33:09;3.00;99.90
22185;DHT22;11258;52.516;13.318;2023-02-28T00:35:35;3.00;99.90
22185;DHT22;11258;52.516;13.318;2023-02-28T00:38:00;3.00;99.90
22185;DHT22;11258;52.516;13.318;2023-02-28T00:40:26;3.00;99.90
22185;DHT22;11258;52.516;13.318;2023-02-28T00:42:52;3.00;99.90
22185;DHT22;11258;52.516;13.318;2023-02-28T00:45:17;3.00;99.90
22185;DHT22;11258;52.516;13.318;2023-02-28T00:47:43;3.10;99.90
22185;DHT22;11258;52.516;13.318;2023-02-28T00:50:09;3.00;99.90
22185;DHT22;11258;52.516;13.318;2023-02-28T00:52:35;3.00;99.90
22185;DHT22;11258;52.516;13.318;2023-02-28T00:55:01;3.00;99.90
22185;DHT22;11258;52.516;13.318;2023-02-28T00:57:26;3.00;99.90
22185;DHT22;11258;52.516;13.318;2023-02-28T00:59:52;3.00;99.90
22185;DHT22;11258;52.516;13.318;2023-02-28T01:02:20;3.00;99.90
22185;DHT22;11258;52.516;13.318;2023-02-28T01:04:46;3.00;99.90
22185;DHT22;11258;52.516;13.318;2023-02-28T01:07:12;3.10;99.90
22185;DHT22;11258;52.516;13.318;2023-02-28T01:09:40;3.10;99.90
22185;DHT22;11258;52.516;13.318;2023-02-28T01:12:07;3.10;99.90
22185;DHT22;11258;52.516;13.318;2023-02-28T01:14:32;3.00;99.90
22185;DHT22;11258;52.516;13.318;2023-02-28T01:16:58;3.00;99.90
22185;DHT22;11258;52.516;13.318;2023-02-28T01:19:24;3.10;99.90
22185;DHT22;11258;52.516;13.318;2023-02-28T01:21:49;3.10;99.90
22185;DHT22;11258;52.516;13.318;2023-02-28T01:24:15;3.10;99.90
22185;DHT22;11258;52.516;13.318;2023-02-28T01:26:41;3.00;99.90
22185;DHT22;11258;52.516;13.318;2023-02-28T01:29:06;3.10;99.90
22185;DHT22;11258;52.516;13.318;2023-02-28T01:31:32;3.10;99.90
22185;DHT22;11258;52.516;13.318;2023-02-28T01:33:58;3.00;99.90
22185;DHT22;11258;52.516;13.318;2023-02-28T01:36:24;3.00;99.90
22185;DHT22;11258;52.516;13.318;2023-02-28T01:38:50;3.10;99.90
22185;DHT22;11258;52.516;13.318;2023-02-28T01:41:23;3.00;99.90
22185;DHT22;11258;52.516;13.318;2023-02-28T01:46:15;3.00;99.90
22185;DHT22;11258;52.516;13.318;2023-02-28T01:51:12;2.90;99.90
22185;DHT22;11258;52.516;13.318;2023-02-28T01:53:44;2.90;99.90
22185;DHT22;11258;52.516;13.318;2023-02-28T01:56:12;2.90;99.90
22185;DHT22;11258;52.516;13.318;2023-02-28T01:58:39;2.90;99.90
22185;DHT22;11258;52.516;13.318;2023-02-28T02:01:05;2.80;99.90
22185;DHT22;11258;52.516;13.318;2023-02-28T02:03:31;2.80;99.90
22185;DHT22;11258;52.516;13.318;2023-02-28T02:05:57;2.80;99.90
22185;DHT22;11258;52.516;13.318;2023-02-28T02:08:25;2.90;99.90
22185;DHT22;11258;52.516;13.318;2023-02-28T02:10:57;2.80;99.90
22185;DHT22;11258;52.516;13.318;2023-02-28T02:22:12;2.60;99.90
22185;DHT22;11258;52.516;13.318;2023-02-28T02:30:17;2.40;99.90
22185;DHT22;11258;52.516;13.318;2023-02-28T02:33:01;2.40;99.90
22185;DHT22;11258;52.516;13.318;2023-02-28T02:36:06;2.30;99.90
22185;DHT22;11258;52.516;13.318;2023-02-28T02:39:01;2.30;99.90
22185;DHT22;11258;52.516;13.318;2023-02-28T02:41:39;2.20;99.90
22185;DHT22;11258;52.516;13.318;2023-02-28T02:44:14;2.30;99.90
22185;DHT22;11258;52.516;13.318;2023-02-28T02:46:44;2.20;99.90
22185;DHT22;11258;52.516;13.318;2023-02-28T02:49:17;2.20;99.90
22185;DHT22;11258;52.516;13.318;2023-02-28T02:51:46;2.20;99.90
22185;DHT22;11258;52.516;13.318;2023-02-28T02:54:28;2.20;99.90
22185;DHT22;11258;52.516;13.318;2023-02-28T02:56:57;2.10;99.90
22185;DHT22;11258;52.516;13.318;2023-02-28T02:59:24;2.10;99.90
22185;DHT22;11258;52.516;13.318;2023-02-28T03:01:57;2.10;99.90
22185;DHT22;11258;52.516;13.318;2023-02-28T03:04:30;2.10;99.90
22185;DHT22;11258;52.516;13.318;2023-02-28T03:06:56;2.00;99.90
22185;DHT22;11258;52.516;13.318;2023-02-28T03:09:22;2.00;99.90
22185;DHT22;11258;52.516;13.318;2023-02-28T03:11:49;2.00;99.90
22185;DHT22;11258;52.516;13.318;2023-02-28T03:17:10;2.00;99.90
22185;DHT22;11258;52.516;13.318;2023-02-28T03:23:03;1.90;99.90
22185;DHT22;11258;52.516;13.318;2023-02-28T03:33:37;1.90;99.90
22185;DHT22;11258;52.516;13.318;2023-02-28T03:36:16;1.90;99.90
22185;DHT22;11258;52.516;13.318;2023-02-28T03:38:51;1.80;99.90
22185;DHT22;11258;52.516;13.318;2023-02-28T03:41:25;1.80;99.90
22185;DHT22;11258;52.516;13.318;2023-02-28T03:44:14;1.80;99.90
22185;DHT22;11258;52.516;13.318;2023-02-28T03:49:36;1.70;99.90
22185;DHT22;11258;52.516;13.318;2023-02-28T03:52:06;1.70;99.90
22185;DHT22;11258;52.516;13.318;2023-02-28T03:54:41;1.70;99.90
22185;DHT22;11258;52.516;13.318;2023-02-28T03:57:24;1.70;99.90
22185;DHT22;11258;52.516;13.318;2023-02-28T04:00:19;1.60;99.90
22185;DHT22;11258;52.516;13.318;2023-02-28T04:02:46;1.60;99.90
22185;DHT22;11258;52.516;13.318;2023-02-28T04:05:18;1.70;99.90
22185;DHT22;11258;52.516;13.318;2023-02-28T04:07:44;1.60;99.90
22185;DHT22;11258;52.516;13.318;2023-02-28T04:10:11;1.60;99.90
22185;DHT22;11258;52.516;13.318;2023-02-28T04:12:38;1.60;99.90
22185;DHT22;11258;52.516;13.318;2023-02-28T04:15:04;1.50;99.90
22185;DHT22;11258;52.516;13.318;2023-02-28T04:17:30;1.60;99.90
22185;DHT22;11258;52.516;13.318;2023-02-28T04:19:55;1.50;99.90
22185;DHT22;11258;52.516;13.318;2023-02-28T04:22:22;1.50;99.90
22185;DHT22;11258;52.516;13.318;2023-02-28T04:24:51;1.50;99.90
22185;DHT22;11258;52.516;13.318;2023-02-28T04:27:19;1.50;99.90
22185;DHT22;11258;52.516;13.318;2023-02-28T04:29:45;1.50;99.90
22185;DHT22;11258;52.516;13.318;2023-02-28T04:32:11;1.50;99.90
22185;DHT22;11258;52.516;13.318;2023-02-28T04:34:36;1.50;99.90
22185;DHT22;11258;52.516;13.318;2023-02-28T04:37:02;1.40;99.90
22185;DHT22;11258;52.516;13.318;2023-02-28T04:39:28;1.40;99.90
22185;DHT22;11258;52.516;13.318;2023-02-28T04:41:55;1.40;99.90
22185;DHT22;11258;52.516;13.318;2023-02-28T04:44:22;1.40;99.90
22185;DHT22;11258;52.516;13.318;2023-02-28T04:46:48;1.40;99.90
22185;DHT22;11258;52.516;13.318;2023-02-28T04:49:15;1.40;99.90
22185;DHT22;11258;52.516;13.318;2023-02-28T04:51:41;1.30;99.90
22185;DHT22;11258;52.516;13.318;2023-02-28T04:54:07;1.30;99.90
22185;DHT22;11258;52.516;13.318;2023-02-28T04:56:33;1.30;99.90
22185;DHT22;11258;52.516;13.318;2023-02-28T04:58:58;1.30;99.90
22185;DHT22;11258;52.516;13.318;2023-02-28T05:01:26;1.20;99.90
22185;DHT22;11258;52.516;13.318;2023-02-28T05:03:54;1.20;99.90
22185;DHT22;11258;52.516;13.318;2023-02-28T05:06:24;1.20;99.90
22185;DHT22;11258;52.516;13.318;2023-02-28T05:08:50;1.20;99.90
22185;DHT22;11258;52.516;13.318;2023-02-28T05:11:20;1.20;99.90
22185;DHT22;11258;52.516;13.318;2023-02-28T05:13:46;1.20;99.90
22185;DHT22;11258;52.516;13.318;2023-02-28T05:16:12;1.10;99.90
22185;DHT22;11258;52.516;13.318;2023-02-28T05:18:38;1.10;99.90
22185;DHT22;11258;52.516;13.318;2023-02-28T05:21:04;1.10;99.90
22185;DHT22;11258;52.516;13.318;2023-02-28T05:23:29;1.10;99.90
22185;DHT22;11258;52.516;13.318;2023-02-28T05:25:56;1.10;99.90
22185;DHT22;11258;52.516;13.318;2023-02-28T05:28:21;1.10;99.90
22185;DHT22;11258;52.516;13.318;2023-02-28T05:30:47;1.10;99.90
22185;DHT22;11258;52.516;13.318;2023-02-28T05:33:13;1.10;99.90
22185;DHT22;11258;52.516;13.318;2023-02-28T05:35:40;1.10;99.90
22185;DHT22;11258;52.516;13.318;2023-02-28T05:38:06;1.00;99.90
22185;DHT22;11258;52.516;13.318;2023-02-28T05:40:32;1.00;99.90
22185;DHT22;11258;52.516;13.318;2023-02-28T05:42:57;1.10;99.90
22185;DHT22;11258;52.516;13.318;2023-02-28T05:45:23;1.10;99.90
22185;DHT22;11258;52.516;13.318;2023-02-28T05:47:48;1.20;99.90
22185;DHT22;11258;52.516;13.318;2023-02-28T05:50:14;1.20;99.90
22185;DHT22;11258;52.516;13.318;2023-02-28T05:52:40;1.20;99.90
22185;DHT22;11258;52.516;13.318;2023-02-28T05:55:06;1.20;99.90
22185;DHT22;11258;52.516;13.318;2023-02-28T05:57:32;1.20;99.90
22185;DHT22;11258;52.516;13.318;2023-02-28T05:59:57;1.20;99.90
22185;DHT22;11258;52.516;13.318;2023-02-28T06:02:23;1.30;99.90
22185;DHT22;11258;52.516;13.318;2023-02-28T06:04:49;1.30;99.90
22185;DHT22;11258;52.516;13.318;2023-02-28T06:07:15;1.30;99.90
22185;DHT22;11258;52.516;13.318;2023-02-28T06:09:41;1.40;99.90
22185;DHT22;11258;52.516;13.318;2023-02-28T06:12:07;1.40;99.90
22185;DHT22;11258;52.516;13.318;2023-02-28T06:14:35;1.50;99.90
22185;DHT22;11258;52.516;13.318;2023-02-28T06:17:01;1.50;99.90
22185;DHT22;11258;52.516;13.318;2023-02-28T06:19:27;1.60;99.90
22185;DHT22;11258;52.516;13.318;2023-02-28T06:21:56;1.60;99.90
22185;DHT22;11258;52.516;13.318;2023-02-28T06:24:23;1.70;99.90
22185;DHT22;11258;52.516;13.318;2023-02-28T06:26:49;2.80;99.90
22185;DHT22;11258;52.516;13.318;2023-02-28T06:29:15;4.60;99.90
22185;DHT22;11258;52.516;13.318;2023-02-28T06:31:42;6.10;99.90
22185;DHT22;11258;52.516;13.318;2023-02-28T06:34:09;7.30;99.90
22185;DHT22;11258;52.516;13.318;2023-02-28T06:36:40;8.50;99.90
22185;DHT22;11258;52.516;13.318;2023-02-28T06:39:06;9.40;99.90
22185;DHT22;11258;52.516;13.318;2023-02-28T06:41:33;9.60;99.90
22185;DHT22;11258;52.516;13.318;2023-02-28T06:44:04;8.70;99.90
22185;DHT22;11258;52.516;13.318;2023-02-28T06:46:31;9.80;99.90
22185;DHT22;11258;52.516;13.318;2023-02-28T06:48:57;10.60;99.90
22185;DHT22;11258;52.516;13.318;2023-02-28T06:51:23;11.20;99.90
22185;DHT22;11258;52.516;13.318;2023-02-28T06:53:50;11.90;99.90
22185;DHT22;11258;52.516;13.318;2023-02-28T06:56:17;12.10;99.90
22185;DHT22;11258;52.516;13.318;2023-02-28T06:58:47;12.50;99.90
22185;DHT22;11258;52.516;13.318;2023-02-28T07:01:14;12.80;99.90
22185;DHT22;11258;52.516;13.318;2023-02-28T07:03:39;13.10;99.90
22185;DHT22;11258;52.516;13.318;2023-02-28T07:06:06;13.00;99.90
22185;DHT22;11258;52.516;13.318;2023-02-28T07:08:33;13.20;99.90
22185;DHT22;11258;52.516;13.318;2023-02-28T07:10:58;13.60;99.90
22185;DHT22;11258;52.516;13.318;2023-02-28T07:13:24;13.80;99.90
22185;DHT22;11258;52.516;13.318;2023-02-28T07:16:01;13.60;99.90
22185;DHT22;11258;52.516;13.318;2023-02-28T07:18:27;13.60;99.90
22185;DHT22;11258;52.516;13.318;2023-02-28T07:20:54;13.50;99.90
22185;DHT22;11258;52.516;13.318;2023-02-28T07:23:20;13.50;99.90
22185;DHT22;11258;52.516;13.318;2023-02-28T07:25:46;13.40;99.90
22185;DHT22;11258;52.516;13.318;2023-02-28T07:28:12;13.70;99.90
22185;DHT22;11258;52.516;13.318;2023-02-28T07:30:38;13.80;99.90
22185;DHT22;11258;52.516;13.318;2023-02-28T07:33:04;14.00;99.90
22185;DHT22;11258;52.516;13.318;2023-02-28T07:35:30;14.30;99.90
22185;DHT22;11258;52.516;13.318;2023-02-28T07:37:58;14.10;99.90
22185;DHT22;11258;52.516;13.318;2023-02-28T07:40:24;14.20;99.90
22185;DHT22;11258;52.516;13.318;2023-02-28T07:42:50;14.10;99.90
22185;DHT22;11258;52.516;13.318;2023-02-28T07:45:16;14.20;99.90
22185;DHT22;11258;52.516;13.318;2023-02-28T07:47:43;13.90;99.90
22185;DHT22;11258;52.516;13.318;2023-02-28T07:50:11;14.10;99.80
22185;DHT22;11258;52.516;13.318;2023-02-28T07:52:37;14.30;97.10
22185;DHT22;11258;52.516;13.318;2023-02-28T07:55:04;14.60;91.40
22185;DHT22;11258;52.516;13.318;2023-02-28T07:57:30;14.00;88.90
22185;DHT22;11258;52.516;13.318;2023-02-28T07:59:57;12.90;86.30
22185;DHT22;11258;52.516;13.318;2023-02-28T08:02:23;12.20;90.00
22185;DHT22;11258;52.516;13.318;2023-02-28T08:04:48;13.00;91.60
22185;DHT22;11258;52.516;13.318;2023-02-28T08:07:15;14.00;89.60
22185;DHT22;11258;52.516;13.318;2023-02-28T08:09:41;13.20;88.00
22185;DHT22;11258;52.516;13.318;2023-02-28T08:12:08;13.30;88.00
22185;DHT22;11258;52.516;13.318;2023-02-28T08:14:34;13.00;84.50
22185;DHT22;11258;52.516;13.318;2023-02-28T08:17:00;12.80;85.70
22185;DHT22;11258;52.516;13.318;2023-02-28T08:19:25;13.00;86.00
22185;DHT22;11258;52.516;13.318;2023-02-28T08:21:51;12.90;86.60
22185;DHT22;11258;52.516;13.318;2023-02-28T08:24:16;13.60;86.60
22185;DHT22;11258;52.516;13.318;2023-02-28T08:26:42;13.90;83.70
22185;DHT22;11258;52.516;13.318;2023-02-28T08:29:08;12.40;79.00
22185;DHT22;11258;52.516;13.318;2023-02-28T08:31:33;12.50;81.40
22185;DHT22;11258;52.516;13.318;2023-02-28T08:34:07;11.30;82.50
22185;DHT22;11258;52.516;13.318;2023-02-28T08:36:34;11.30;84.60
22185;DHT22;11258;52.516;13.318;2023-02-28T08:39:00;11.50;86.30
22185;DHT22;11258;52.516;13.318;2023-02-28T08:41:26;12.10;85.00
22185;DHT22;11258;52.516;13.318;2023-02-28T08:43:52;11.50;84.50
22185;DHT22;11258;52.516;13.318;2023-02-28T08:46:19;11.10;85.10
22185;DHT22;11258;52.516;13.318;2023-02-28T08:48:45;10.90;86.00
22185;DHT22;11258;52.516;13.318;2023-02-28T08:51:14;9.80;85.70
22185;DHT22;11258;52.516;13.318;2023-02-28T08:53:41;10.10;88.60
22185;DHT22;11258;52.516;13.318;2023-02-28T08:56:10;10.00;87.20
22185;DHT22;11258;52.516;13.318;2023-02-28T08:58:36;9.10;88.70
22185;DHT22;11258;52.516;13.318;2023-02-28T09:03:38;8.90;90.20
22185;DHT22;11258;52.516;13.318;2023-02-28T09:06:04;8.40;90.00
22185;DHT22;11258;52.516;13.318;2023-02-28T09:08:31;9.10;90.50
22185;DHT22;11258;52.516;13.318;2023-02-28T09:10:57;9.20;90.20
22185;DHT22;11258;52.516;13.318;2023-02-28T09:13:24;9.30;90.50
22185;DHT22;11258;52.516;13.318;2023-02-28T09:15:50;10.00;90.30
22185;DHT22;11258;52.516;13.318;2023-02-28T09:18:16;10.00;88.40
22185;DHT22;11258;52.516;13.318;2023-02-28T09:20:42;9.90;88.90
22185;DHT22;11258;52.516;13.318;2023-02-28T09:23:10;9.20;89.30
22185;DHT22;11258;52.516;13.318;2023-02-28T09:25:36;8.70;90.50
22185;DHT22;11258;52.516;13.318;2023-02-28T09:28:02;8.40;90.70
22185;DHT22;11258;52.516;13.318;2023-02-28T09:30:29;8.70;91.00
22185;DHT22;11258;52.516;13.318;2023-02-28T09:32:55;8.30;91.00
22185;DHT22;11258;52.516;13.318;2023-02-28T09:35:21;8.40;91.20
22185;DHT22;11258;52.516;13.318;2023-02-28T09:37:51;8.50;92.30
22185;DHT22;11258;52.516;13.318;2023-02-28T09:40:22;8.10;92.00
22185;DHT22;11258;52.516;13.318;2023-02-28T09:42:51;8.20;92.00
22185;DHT22;11258;52.516;13.318;2023-02-28T09:45:31;8.00;91.80
22185;DHT22;11258;52.516;13.318;2023-02-28T09:48:01;8.10;92.70
22185;DHT22;11258;52.516;13.318;2023-02-28T09:50:39;7.90;93.10
22185;DHT22;11258;52.516;13.318;2023-02-28T09:55:49;8.00;93.00
22185;DHT22;11258;52.516;13.318;2023-02-28T09:58:28;8.20;92.80
22185;DHT22;11258;52.516;13.318;2023-02-28T10:01:18;7.90;93.20
22185;DHT22;11258;52.516;13.318;2023-02-28T10:03:51;8.40;93.10
22185;DHT22;11258;52.516;13.318;2023-02-28T10:06:26;8.40;93.00
22185;DHT22;11258;52.516;13.318;2023-02-28T10:09:22;8.70;92.60
22185;DHT22;11258;52.516;13.318;2023-02-28T10:11:52;9.10;92.60
22185;DHT22;11258;52.516;13.318;2023-02-28T10:14:21;9.40;92.50
22185;DHT22;11258;52.516;13.318;2023-02-28T10:17:03;9.20;92.00
22185;DHT22;11258;52.516;13.318;2023-02-28T10:19:39;9.00;91.60
22185;DHT22;11258;52.516;13.318;2023-02-28T10:22:22;8.30;92.30
22185;DHT22;11258;52.516;13.318;2023-02-28T10:24:51;8.60;92.60
22185;DHT22;11258;52.516;13.318;2023-02-28T10:27:18;8.50;92.80
22185;DHT22;11258;52.516;13.318;2023-02-28T10:29:55;8.50;93.10
22185;DHT22;11258;52.516;13.318;2023-02-28T10:32:23;8.90;92.90
22185;DHT22;11258;52.516;13.318;2023-02-28T10:34:59;9.10;92.70
22185;DHT22;11258;52.516;13.318;2023-02-28T10:37:26;9.30;92.70
22185;DHT22;11258;52.516;13.318;2023-02-28T10:39:52;8.70;92.40
22185;DHT22;11258;52.516;13.318;2023-02-28T10:44:45;8.50;93.10
22185;DHT22;11258;52.516;13.318;2023-02-28T10:47:16;8.00;93.50
22185;DHT22;11258;52.516;13.318;2023-02-28T10:49:48;7.90;93.70
22185;DHT22;11258;52.516;13.318;2023-02-28T10:52:36;7.90;94.10
22185;DHT22;11258;52.516;13.318;2023-02-28T10:55:19;8.20;94.80
22185;DHT22;11258;52.516;13.318;2023-02-28T10:57:46;8.50;94.00
22185;DHT22;11258;52.516;13.318;2023-02-28T11:02:44;8.90;94.10
22185;DHT22;11258;52.516;13.318;2023-02-28T11:05:40;9.10;93.60
22185;DHT22;11258;52.516;13.318;2023-02-28T11:08:14;9.30;93.40
22185;DHT22;11258;52.516;13.318;2023-02-28T11:10:46;9.40;93.40
22185;DHT22;11258;52.516;13.318;2023-02-28T11:13:20;9.40;93.00
22185;DHT22;11258;52.516;13.318;2023-02-28T11:15:57;9.40;93.00
22185;DHT22;11258;52.516;13.318;2023-02-28T11:18:38;9.20;92.60
22185;DHT22;11258;52.516;13.318;2023-02-28T11:21:06;8.50;93.00
22185;DHT22;11258;52.516;13.318;2023-02-28T11:23:34;8.20;93.80
22185;DHT22;11258;52.516;13.318;2023-02-28T11:26:02;8.50;94.20
22185;DHT22;11258;52.516;13.318;2023-02-28T11:28:39;8.70;93.80
22185;DHT22;11258;52.516;13.318;2023-02-28T11:31:15;8.80;93.90
22185;DHT22;11258;52.516;13.318;2023-02-28T11:33:50;8.20;93.20
22185;DHT22;11258;52.516;13.318;2023-02-28T11:38:42;7.90;94.90
22185;DHT22;11258;52.516;13.318;2023-02-28T11:44:17;8.00;94.70
22185;DHT22;11258;52.516;13.318;2023-02-28T11:46:52;7.90;94.70
22185;DHT22;11258;52.516;13.318;2023-02-28T12:08:49;7.80;95.80
22185;DHT22;11258;52.516;13.318;2023-02-28T12:16:55;7.60;96.20
22185;DHT22;11258;52.516;13.318;2023-02-28T12:22:26;7.90;95.70
22185;DHT22;11258;52.516;13.318;2023-02-28T12:27:38;7.90;96.90
22185;DHT22;11258;52.516;13.318;2023-02-28T12:30:28;8.00;96.60
22185;DHT22;11258;52.516;13.318;2023-02-28T12:35:34;7.30;96.50
22185;DHT22;11258;52.516;13.318;2023-02-28T12:38:14;7.10;96.90
22185;DHT22;11258;52.516;13.318;2023-02-28T12:40:48;7.30;97.40
22185;DHT22;11258;52.516;13.318;2023-02-28T12:43:17;7.60;97.10
22185;DHT22;11258;52.516;13.318;2023-02-28T12:45:57;8.00;97.10
22185;DHT22;11258;52.516;13.318;2023-02-28T12:48:40;7.50;96.60
22185;DHT22;11258;52.516;13.318;2023-02-28T12:51:08;6.60;97.80
22185;DHT22;11258;52.516;13.318;2023-02-28T12:56:35;6.60;98.70
22185;DHT22;11258;52.516;13.318;2023-02-28T13:04:32;7.30;98.60
22185;DHT22;11258;52.516;13.318;2023-02-28T13:09:58;7.20;98.60
22185;DHT22;11258;52.516;13.318;2023-02-28T13:12:25;7.10;98.50
22185;DHT22;11258;52.516;13.318;2023-02-28T13:15:03;7.00;98.50
22185;DHT22;11258;52.516;13.318;2023-02-28T13:17:30;7.30;98.90
22185;DHT22;11258;52.516;13.318;2023-02-28T13:19:58;7.00;98.80
22185;DHT22;11258;52.516;13.318;2023-02-28T13:22:47;7.10;98.90
22185;DHT22;11258;52.516;13.318;2023-02-28T13:27:49;7.20;98.30
22185;DHT22;11258;52.516;13.318;2023-02-28T13:33:24;6.90;97.70
22185;DHT22;11258;52.516;13.318;2023-02-28T13:38:45;7.20;98.50
22185;DHT22;11258;52.516;13.318;2023-02-28T13:44:17;7.20;98.40
22185;DHT22;11258;52.516;13.318;2023-02-28T13:49:28;7.50;98.50
22185;DHT22;11258;52.516;13.318;2023-02-28T14:09:00;6.80;98.50
22185;DHT22;11258;52.516;13.318;2023-02-28T14:11:30;6.70;98.50
22185;DHT22;11258;52.516;13.318;2023-02-28T14:13:56;6.80;99.30
22185;DHT22;11258;52.516;13.318;2023-02-28T14:16:34;6.90;99.10
22185;DHT22;11258;52.516;13.318;2023-02-28T14:19:05;7.10;99.10
22185;DHT22;11258;52.516;13.318;2023-02-28T14:21:38;7.10;99.00
22185;DHT22;11258;52.516;13.318;2023-02-28T14:24:32;7.10;99.50
22185;DHT22;11258;52.516;13.318;2023-02-28T14:32:41;7.20;99.90
22185;DHT22;11258;52.516;13.318;2023-02-28T14:37:53;7.00;99.90
22185;DHT22;11258;52.516;13.318;2023-02-28T14:42:56;7.20;99.90
22185;DHT22;11258;52.516;13.318;2023-02-28T14:45:23;7.20;99.70
22185;DHT22;11258;52.516;13.318;2023-02-28T14:47:51;7.30;99.90
22185;DHT22;11258;52.516;13.318;2023-02-28T14:50:32;7.30;99.90
22185;DHT22;11258;52.516;13.318;2023-02-28T14:52:59;7.30;99.50
22185;DHT22;11258;52.516;13.318;2023-02-28T14:55:30;7.20;99.40
22185;DHT22;11258;52.516;13.318;2023-02-28T14:58:02;6.80;99.50
22185;DHT22;11258;52.516;13.318;2023-02-28T15:00:37;6.70;99.80
22185;DHT22;11258;52.516;13.318;2023-02-28T15:03:23;6.60;99.90
22185;DHT22;11258;52.516;13.318;2023-02-28T15:06:01;6.70;99.90
22185;DHT22;11258;52.516;13.318;2023-02-28T15:08:28;6.60;99.90
22185;DHT22;11258;52.516;13.318;2023-02-28T15:13:20;6.90;99.90
22185;DHT22;11258;52.516;13.318;2023-02-28T15:15:53;6.90;99.90
22185;DHT22;11258;52.516;13.318;2023-02-28T15:21:20;6.80;99.90
22185;DHT22;11258;52.516;13.318;2023-02-28T15:23:57;6.70;99.90
22185;DHT22;11258;52.516;13.318;2023-02-28T15:26:28;6.70;99.90
22185;DHT22;11258;52.516;13.318;2023-02-28T15:29:00;6.80;99.90
22185;DHT22;11258;52.516;13.318;2023-02-28T15:31:29;6.80;99.90
22185;DHT22;11258;52.516;13.318;2023-02-28T15:33:58;6.80;99.90
22185;DHT22;11258;52.516;13.318;2023-02-28T15:36:30;6.90;99.90
22185;DHT22;11258;52.516;13.318;2023-02-28T15:38:59;6.60;99.90
22185;DHT22;11258;52.516;13.318;2023-02-28T15:41:30;6.30;99.90
22185;DHT22;11258;52.516;13.318;2023-02-28T15:44:24;6.20;99.90
22185;DHT22;11258;52.516;13.318;2023-02-28T15:47:04;6.20;99.90
22185;DHT22;11258;52.516;13.318;2023-02-28T15:52:37;6.20;99.90
22185;DHT22;11258;52.516;13.318;2023-02-28T15:57:39;6.10;99.90
22185;DHT22;11258;52.516;13.318;2023-02-28T16:00:11;5.90;99.90
22185;DHT22;11258;52.516;13.318;2023-02-28T16:02:38;5.80;99.90
22185;DHT22;11258;52.516;13.318;2023-02-28T16:07:34;5.90;99.90
22185;DHT22;11258;52.516;13.318;2023-02-28T16:10:00;5.90;99.90
22185;DHT22;11258;52.516;13.318;2023-02-28T16:12:32;6.00;99.90
22185;DHT22;11258;52.516;13.318;2023-02-28T16:15:00;6.00;99.90
22185;DHT22;11258;52.516;13.318;2023-02-28T16:17:31;5.90;99.90
22185;DHT22;11258;52.516;13.318;2023-02-28T16:19:58;5.90;99.90
22185;DHT22;11258;52.516;13.318;2023-02-28T16:22:24;6.00;99.90
22185;DHT22;11258;52.516;13.318;2023-02-28T16:24:50;5.90;99.90
22185;DHT22;11258;52.516;13.318;2023-02-28T16:27:23;5.90;99.90
22185;DHT22;11258;52.516;13.318;2023-02-28T16:29:50;5.80;99.90
22185;DHT22;11258;52.516;13.318;2023-02-28T16:32:16;5.90;99.90
22185;DHT22;11258;52.516;13.318;2023-02-28T16:34:45;5.80;99.90
22185;DHT22;11258;52.516;13.318;2023-02-28T16:37:15;5.70;99.90
22185;DHT22;11258;52.516;13.318;2023-02-28T16:39:42;5.70;99.90
22185;DHT22;11258;52.516;13.318;2023-02-28T16:42:15;5.60;99.90
22185;DHT22;11258;52.516;13.318;2023-02-28T16:44:42;5.50;99.90
22185;DHT22;11258;52.516;13.318;2023-02-28T16:47:10;5.50;99.90
22185;DHT22;11258;52.516;13.318;2023-02-28T16:49:36;5.50;99.90
22185;DHT22;11258;52.516;13.318;2023-02-28T16:52:02;5.50;99.90
22185;DHT22;11258;52.516;13.318;2023-02-28T16:54:27;5.50;99.90
22185;DHT22;11258;52.516;13.318;2023-02-28T16:56:53;5.50;99.90
22185;DHT22;11258;52.516;13.318;2023-02-28T16:59:22;5.40;99.90
22185;DHT22;11258;52.516;13.318;2023-02-28T17:01:49;5.40;99.90
22185;DHT22;11258;52.516;13.318;2023-02-28T17:04:15;5.40;99.90
22185;DHT22;11258;52.516;13.318;2023-02-28T17:06:42;5.30;99.90
22185;DHT22;11258;52.516;13.318;2023-02-28T17:09:16;5.30;99.90
22185;DHT22;11258;52.516;13.318;2023-02-28T17:11:43;5.30;99.90
22185;DHT22;11258;52.516;13.318;2023-02-28T17:14:08;5.30;99.90
22185;DHT22;11258;52.516;13.318;2023-02-28T17:16:36;5.30;99.90
22185;DHT22;11258;52.516;13.318;2023-02-28T17:19:06;5.30;99.90
22185;DHT22;11258;52.516;13.318;2023-02-28T17:21:32;5.20;99.90
22185;DHT22;11258;52.516;13.318;2023-02-28T17:23:58;5.10;99.90
22185;DHT22;11258;52.516;13.318;2023-02-28T17:26:24;5.10;99.90
22185;DHT22;11258;52.516;13.318;2023-02-28T17:28:51;5.10;99.90
22185;DHT22;11258;52.516;13.318;2023-02-28T17:31:17;5.10;99.90
22185;DHT22;11258;52.516;13.318;2023-02-28T17:33:44;5.10;99.90
22185;DHT22;11258;52.516;13.318;2023-02-28T17:36:14;5.00;99.90
22185;DHT22;11258;52.516;13.318;2023-02-28T17:38:40;5.10;99.90
22185;DHT22;11258;52.516;13.318;2023-02-28T17:41:07;5.00;99.90
22185;DHT22;11258;52.516;13.318;2023-02-28T17:43:33;5.00;99.90
22185;DHT22;11258;52.516;13.318;2023-02-28T17:45:58;5.00;99.90
22185;DHT22;11258;52.516;13.318;2023-02-28T17:48:25;5.00;99.90
22185;DHT22;11258;52.516;13.318;2023-02-28T17:50:50;5.00;99.90
22185;DHT22;11258;52.516;13.318;2023-02-28T17:53:16;5.00;99.90
22185;DHT22;11258;52.516;13.318;2023-02-28T17:55:42;4.90;99.90
22185;DHT22;11258;52.516;13.318;2023-02-28T17:58:10;5.00;99.90
22185;DHT22;11258;52.516;13.318;2023-02-28T18:00:37;5.00;99.90
22185;DHT22;11258;52.516;13.318;2023-02-28T18:03:03;4.90;99.90
22185;DHT22;11258;52.516;13.318;2023-02-28T18:05:29;4.90;99.90
22185;DHT22;11258;52.516;13.318;2023-02-28T18:07:55;4.90;99.90
22185;DHT22;11258;52.516;13.318;2023-02-28T18:10:21;4.80;99.90
22185;DHT22;11258;52.516;13.318;2023-02-28T18:12:49;4.90;99.90